sensor_id;sensor_type;location;lat;lon;timestamp;P1;durP1;ratioP1;P2;durP2;ratioP2
22024;SDS011;11176;51.448;6.650;2022-08-19T00:01:26;8.73;;;5.40;;
22024;SDS011;11176;51.448;6.650;2022-08-19T00:04:00;6.35;;;5.10;;
22024;SDS011;11176;51.448;6.650;2022-08-19T00:06:30;7.07;;;5.35;;
22024;SDS011;11176;51.448;6.650;2022-08-19T00:08:57;7.50;;;5.28;;
22024;SDS011;11176;51.448;6.650;2022-08-19T00:11:26;6.25;;;5.18;;
22024;SDS011;11176;51.448;6.650;2022-08-19T00:13:54;7.28;;;5.43;;
22024;SDS011;11176;51.448;6.650;2022-08-19T00:16:23;7.30;;;4.80;;
22024;SDS011;11176;51.448;6.650;2022-08-19T00:18:52;5.60;;;4.72;;
22024;SDS011;11176;51.448;6.650;2022-08-19T00:21:19;7.38;;;5.78;;
22024;SDS011;11176;51.448;6.650;2022-08-19T00:23:46;7.55;;;5.50;;
22024;SDS011;11176;51.448;6.650;2022-08-19T00:26:12;8.13;;;5.18;;
22024;SDS011;11176;51.448;6.650;2022-08-19T00:28:39;7.72;;;5.65;;
22024;SDS011;11176;51.448;6.650;2022-08-19T00:31:07;5.90;;;4.93;;
22024;SDS011;11176;51.448;6.650;2022-08-19T00:33:35;7.47;;;5.80;;
22024;SDS011;11176;51.448;6.650;2022-08-19T00:36:03;7.95;;;5.30;;
22024;SDS011;11176;51.448;6.650;2022-08-19T00:38:33;7.38;;;5.55;;
22024;SDS011;11176;51.448;6.650;2022-08-19T00:41:06;9.13;;;6.13;;
22024;SDS011;11176;51.448;6.650;2022-08-19T00:43:33;9.20;;;5.82;;
22024;SDS011;11176;51.448;6.650;2022-08-19T00:46:00;7.43;;;6.00;;
22024;SDS011;11176;51.448;6.650;2022-08-19T00:48:31;6.80;;;5.50;;
22024;SDS011;11176;51.448;6.650;2022-08-19T00:50:58;10.75;;;6.72;;
22024;SDS011;11176;51.448;6.650;2022-08-19T00:53:26;8.93;;;6.70;;
22024;SDS011;11176;51.448;6.650;2022-08-19T00:55:55;9.40;;;6.88;;
22024;SDS011;11176;51.448;6.650;2022-08-19T00:58:26;7.30;;;5.80;;
22024;SDS011;11176;51.448;6.650;2022-08-19T01:00:56;8.03;;;6.73;;
22024;SDS011;11176;51.448;6.650;2022-08-19T01:03:23;7.45;;;5.97;;
22024;SDS011;11176;51.448;6.650;2022-08-19T01:05:50;8.52;;;5.72;;
22024;SDS011;11176;51.448;6.650;2022-08-19T01:08:18;6.82;;;5.70;;
22024;SDS011;11176;51.448;6.650;2022-08-19T01:10:53;7.65;;;5.97;;
22024;SDS011;11176;51.448;6.650;2022-08-19T01:13:23;8.35;;;6.28;;
22024;SDS011;11176;51.448;6.650;2022-08-19T01:16:06;9.25;;;6.53;;
22024;SDS011;11176;51.448;6.650;2022-08-19T01:18:35;7.30;;;6.32;;
22024;SDS011;11176;51.448;6.650;2022-08-19T01:21:08;7.88;;;5.90;;
22024;SDS011;11176;51.448;6.650;2022-08-19T01:23:42;8.88;;;6.35;;
22024;SDS011;11176;51.448;6.650;2022-08-19T01:26:11;7.65;;;5.97;;
22024;SDS011;11176;51.448;6.650;2022-08-19T01:28:44;9.05;;;6.72;;
22024;SDS011;11176;51.448;6.650;2022-08-19T01:31:13;9.35;;;6.50;;
22024;SDS011;11176;51.448;6.650;2022-08-19T01:33:53;10.05;;;6.70;;
22024;SDS011;11176;51.448;6.650;2022-08-19T01:36:27;8.10;;;6.55;;
22024;SDS011;11176;51.448;6.650;2022-08-19T01:38:56;9.25;;;7.32;;
22024;SDS011;11176;51.448;6.650;2022-08-19T01:41:25;9.70;;;6.90;;
22024;SDS011;11176;51.448;6.650;2022-08-19T01:43:52;8.32;;;6.13;;
22024;SDS011;11176;51.448;6.650;2022-08-19T01:46:40;7.82;;;6.28;;
22024;SDS011;11176;51.448;6.650;2022-08-19T01:49:07;11.27;;;7.80;;
22024;SDS011;11176;51.448;6.650;2022-08-19T01:51:34;8.88;;;7.70;;
22024;SDS011;11176;51.448;6.650;2022-08-19T01:54:06;9.77;;;7.28;;
22024;SDS011;11176;51.448;6.650;2022-08-19T01:56:33;9.77;;;7.63;;
22024;SDS011;11176;51.448;6.650;2022-08-19T01:59:01;11.23;;;8.15;;
22024;SDS011;11176;51.448;6.650;2022-08-19T02:01:30;9.18;;;6.75;;
22024;SDS011;11176;51.448;6.650;2022-08-19T02:04:00;9.27;;;7.07;;
22024;SDS011;11176;51.448;6.650;2022-08-19T02:06:27;10.75;;;7.25;;
22024;SDS011;11176;51.448;6.650;2022-08-19T02:08:54;8.95;;;7.28;;
22024;SDS011;11176;51.448;6.650;2022-08-19T02:11:24;9.77;;;7.50;;
22024;SDS011;11176;51.448;6.650;2022-08-19T02:13:57;9.93;;;7.75;;
22024;SDS011;11176;51.448;6.650;2022-08-19T02:16:24;8.75;;;7.18;;
22024;SDS011;11176;51.448;6.650;2022-08-19T02:18:51;9.40;;;6.95;;
22024;SDS011;11176;51.448;6.650;2022-08-19T02:21:18;10.27;;;6.95;;
22024;SDS011;11176;51.448;6.650;2022-08-19T02:23:46;11.25;;;7.50;;
22024;SDS011;11176;51.448;6.650;2022-08-19T02:26:14;9.85;;;6.90;;
22024;SDS011;11176;51.448;6.650;2022-08-19T02:28:41;8.95;;;6.80;;
22024;SDS011;11176;51.448;6.650;2022-08-19T02:31:12;8.25;;;6.75;;
22024;SDS011;11176;51.448;6.650;2022-08-19T02:33:41;9.50;;;7.55;;
22024;SDS011;11176;51.448;6.650;2022-08-19T02:36:08;10.38;;;8.05;;
22024;SDS011;11176;51.448;6.650;2022-08-19T02:38:37;10.98;;;8.88;;
22024;SDS011;11176;51.448;6.650;2022-08-19T02:41:04;13.88;;;10.20;;
22024;SDS011;11176;51.448;6.650;2022-08-19T02:43:37;14.82;;;10.38;;
22024;SDS011;11176;51.448;6.650;2022-08-19T02:46:17;15.80;;;11.50;;
22024;SDS011;11176;51.448;6.650;2022-08-19T02:48:48;12.82;;;10.52;;
22024;SDS011;11176;51.448;6.650;2022-08-19T02:51:20;14.98;;;11.48;;
22024;SDS011;11176;51.448;6.650;2022-08-19T02:53:55;14.95;;;11.77;;
22024;SDS011;11176;51.448;6.650;2022-08-19T02:56:23;13.52;;;11.18;;
22024;SDS011;11176;51.448;6.650;2022-08-19T02:58:54;14.75;;;11.82;;
22024;SDS011;11176;51.448;6.650;2022-08-19T03:01:25;14.20;;;10.95;;
22024;SDS011;11176;51.448;6.650;2022-08-19T03:03:54;13.02;;;10.90;;
22024;SDS011;11176;51.448;6.650;2022-08-19T03:06:22;13.68;;;10.60;;
22024;SDS011;11176;51.448;6.650;2022-08-19T03:08:49;12.63;;;10.85;;
22024;SDS011;11176;51.448;6.650;2022-08-19T03:11:18;12.40;;;10.32;;
22024;SDS011;11176;51.448;6.650;2022-08-19T03:13:46;12.40;;;10.50;;
22024;SDS011;11176;51.448;6.650;2022-08-19T03:16:15;13.32;;;11.25;;
22024;SDS011;11176;51.448;6.650;2022-08-19T03:18:42;14.32;;;11.63;;
22024;SDS011;11176;51.448;6.650;2022-08-19T03:21:09;12.90;;;10.80;;
22024;SDS011;11176;51.448;6.650;2022-08-19T03:23:40;14.98;;;10.45;;
22024;SDS011;11176;51.448;6.650;2022-08-19T03:26:06;13.23;;;9.77;;
22024;SDS011;11176;51.448;6.650;2022-08-19T03:28:43;12.18;;;9.30;;
22024;SDS011;11176;51.448;6.650;2022-08-19T03:31:20;10.65;;;9.05;;
22024;SDS011;11176;51.448;6.650;2022-08-19T03:34:09;13.80;;;10.18;;
22024;SDS011;11176;51.448;6.650;2022-08-19T03:36:41;11.90;;;9.70;;
22024;SDS011;11176;51.448;6.650;2022-08-19T03:39:09;14.23;;;10.48;;
22024;SDS011;11176;51.448;6.650;2022-08-19T03:41:36;12.80;;;10.50;;
22024;SDS011;11176;51.448;6.650;2022-08-19T03:44:15;13.93;;;10.73;;
22024;SDS011;11176;51.448;6.650;2022-08-19T03:47:03;14.02;;;10.85;;
22024;SDS011;11176;51.448;6.650;2022-08-19T03:49:30;14.77;;;11.90;;
22024;SDS011;11176;51.448;6.650;2022-08-19T03:51:59;15.35;;;11.98;;
22024;SDS011;11176;51.448;6.650;2022-08-19T03:54:31;17.27;;;12.80;;
22024;SDS011;11176;51.448;6.650;2022-08-19T03:56:57;16.13;;;12.32;;
22024;SDS011;11176;51.448;6.650;2022-08-19T03:59:25;18.83;;;13.27;;
22024;SDS011;11176;51.448;6.650;2022-08-19T04:01:54;17.73;;;13.70;;
22024;SDS011;11176;51.448;6.650;2022-08-19T04:04:23;18.85;;;13.82;;
22024;SDS011;11176;51.448;6.650;2022-08-19T04:06:54;19.27;;;14.73;;
22024;SDS011;11176;51.448;6.650;2022-08-19T04:09:21;24.65;;;16.38;;
22024;SDS011;11176;51.448;6.650;2022-08-19T04:11:49;20.35;;;16.13;;
22024;SDS011;11176;51.448;6.650;2022-08-19T04:14:20;20.00;;;15.07;;
22024;SDS011;11176;51.448;6.650;2022-08-19T04:16:50;19.17;;;15.27;;
22024;SDS011;11176;51.448;6.650;2022-08-19T04:19:18;24.27;;;17.25;;
22024;SDS011;11176;51.448;6.650;2022-08-19T04:21:46;24.75;;;18.10;;
22024;SDS011;11176;51.448;6.650;2022-08-19T04:24:15;23.65;;;17.15;;
22024;SDS011;11176;51.448;6.650;2022-08-19T04:26:42;22.65;;;16.90;;
22024;SDS011;11176;51.448;6.650;2022-08-19T04:29:10;23.20;;;17.70;;
22024;SDS011;11176;51.448;6.650;2022-08-19T04:31:40;23.05;;;17.92;;
22024;SDS011;11176;51.448;6.650;2022-08-19T04:34:07;23.98;;;18.40;;
22024;SDS011;11176;51.448;6.650;2022-08-19T04:36:37;24.83;;;19.02;;
22024;SDS011;11176;51.448;6.650;2022-08-19T04:39:07;26.23;;;19.75;;
22024;SDS011;11176;51.448;6.650;2022-08-19T04:41:36;25.40;;;19.15;;
22024;SDS011;11176;51.448;6.650;2022-08-19T04:44:21;33.28;;;21.90;;
22024;SDS011;11176;51.448;6.650;2022-08-19T04:46:48;30.88;;;22.85;;
22024;SDS011;11176;51.448;6.650;2022-08-19T04:49:21;31.30;;;23.63;;
22024;SDS011;11176;51.448;6.650;2022-08-19T04:51:49;31.25;;;23.42;;
22024;SDS011;11176;51.448;6.650;2022-08-19T04:54:21;43.13;;;28.40;;
22024;SDS011;11176;51.448;6.650;2022-08-19T04:57:05;30.90;;;23.05;;
22024;SDS011;11176;51.448;6.650;2022-08-19T04:59:34;33.47;;;24.83;;
22024;SDS011;11176;51.448;6.650;2022-08-19T05:02:02;32.20;;;24.73;;
22024;SDS011;11176;51.448;6.650;2022-08-19T05:04:30;33.65;;;24.08;;
22024;SDS011;11176;51.448;6.650;2022-08-19T05:06:58;34.75;;;26.83;;
22024;SDS011;11176;51.448;6.650;2022-08-19T05:09:27;34.67;;;25.70;;
22024;SDS011;11176;51.448;6.650;2022-08-19T05:12:15;35.40;;;26.20;;
22024;SDS011;11176;51.448;6.650;2022-08-19T05:14:42;36.05;;;26.52;;
22024;SDS011;11176;51.448;6.650;2022-08-19T05:17:09;38.67;;;26.73;;
22024;SDS011;11176;51.448;6.650;2022-08-19T05:19:53;32.95;;;25.98;;
22024;SDS011;11176;51.448;6.650;2022-08-19T05:22:39;40.38;;;30.25;;
22024;SDS011;11176;51.448;6.650;2022-08-19T05:25:08;36.95;;;27.55;;
22024;SDS011;11176;51.448;6.650;2022-08-19T05:27:39;40.58;;;29.23;;
22024;SDS011;11176;51.448;6.650;2022-08-19T05:30:08;38.22;;;27.85;;
22024;SDS011;11176;51.448;6.650;2022-08-19T05:32:35;32.83;;;25.27;;
22024;SDS011;11176;51.448;6.650;2022-08-19T05:35:03;36.08;;;25.52;;
22024;SDS011;11176;51.448;6.650;2022-08-19T05:37:30;37.72;;;27.10;;
22024;SDS011;11176;51.448;6.650;2022-08-19T05:39:56;33.88;;;23.83;;
22024;SDS011;11176;51.448;6.650;2022-08-19T05:42:23;34.67;;;25.30;;
22024;SDS011;11176;51.448;6.650;2022-08-19T05:44:50;32.55;;;25.60;;
22024;SDS011;11176;51.448;6.650;2022-08-19T05:47:17;34.47;;;26.52;;
22024;SDS011;11176;51.448;6.650;2022-08-19T05:49:45;39.78;;;28.38;;
22024;SDS011;11176;51.448;6.650;2022-08-19T05:52:13;41.30;;;28.95;;
22024;SDS011;11176;51.448;6.650;2022-08-19T05:54:45;35.13;;;27.73;;
22024;SDS011;11176;51.448;6.650;2022-08-19T05:57:17;36.92;;;28.60;;
22024;SDS011;11176;51.448;6.650;2022-08-19T05:59:44;40.20;;;29.23;;
22024;SDS011;11176;51.448;6.650;2022-08-19T06:02:23;37.53;;;29.40;;
22024;SDS011;11176;51.448;6.650;2022-08-19T06:04:53;45.78;;;31.10;;
22024;SDS011;11176;51.448;6.650;2022-08-19T06:07:20;50.08;;;32.42;;
22024;SDS011;11176;51.448;6.650;2022-08-19T06:09:46;48.92;;;32.42;;
22024;SDS011;11176;51.448;6.650;2022-08-19T06:12:29;46.05;;;34.60;;
22024;SDS011;11176;51.448;6.650;2022-08-19T06:14:59;46.65;;;35.15;;
22024;SDS011;11176;51.448;6.650;2022-08-19T06:17:30;45.35;;;35.22;;
22024;SDS011;11176;51.448;6.650;2022-08-19T06:19:58;42.80;;;34.00;;
22024;SDS011;11176;51.448;6.650;2022-08-19T06:22:25;47.35;;;34.08;;
22024;SDS011;11176;51.448;6.650;2022-08-19T06:24:52;45.80;;;35.55;;
22024;SDS011;11176;51.448;6.650;2022-08-19T06:27:20;45.50;;;34.95;;
22024;SDS011;11176;51.448;6.650;2022-08-19T06:29:47;46.00;;;35.75;;
22024;SDS011;11176;51.448;6.650;2022-08-19T06:32:14;45.72;;;34.28;;
22024;SDS011;11176;51.448;6.650;2022-08-19T06:34:42;49.65;;;35.08;;
22024;SDS011;11176;51.448;6.650;2022-08-19T06:37:10;46.45;;;34.92;;
22024;SDS011;11176;51.448;6.650;2022-08-19T06:39:38;46.83;;;34.70;;
22024;SDS011;11176;51.448;6.650;2022-08-19T06:42:06;45.20;;;34.40;;
22024;SDS011;11176;51.448;6.650;2022-08-19T06:44:37;50.38;;;36.58;;
22024;SDS011;11176;51.448;6.650;2022-08-19T06:47:09;51.30;;;38.72;;
22024;SDS011;11176;51.448;6.650;2022-08-19T06:49:40;53.90;;;38.42;;
22024;SDS011;11176;51.448;6.650;2022-08-19T06:52:07;54.70;;;39.60;;
22024;SDS011;11176;51.448;6.650;2022-08-19T06:54:39;54.05;;;37.88;;
22024;SDS011;11176;51.448;6.650;2022-08-19T06:57:22;52.53;;;38.20;;
22024;SDS011;11176;51.448;6.650;2022-08-19T06:59:50;53.60;;;39.10;;
22024;SDS011;11176;51.448;6.650;2022-08-19T07:02:16;48.30;;;36.72;;
22024;SDS011;11176;51.448;6.650;2022-08-19T07:04:43;51.38;;;36.75;;
22024;SDS011;11176;51.448;6.650;2022-08-19T07:07:11;46.92;;;34.25;;
22024;SDS011;11176;51.448;6.650;2022-08-19T07:09:46;49.83;;;37.13;;
22024;SDS011;11176;51.448;6.650;2022-08-19T07:12:30;52.30;;;36.72;;
22024;SDS011;11176;51.448;6.650;2022-08-19T07:15:01;47.88;;;33.10;;
22024;SDS011;11176;51.448;6.650;2022-08-19T07:17:29;49.38;;;35.42;;
22024;SDS011;11176;51.448;6.650;2022-08-19T07:19:56;42.05;;;31.85;;
22024;SDS011;11176;51.448;6.650;2022-08-19T07:22:30;43.65;;;31.55;;
22024;SDS011;11176;51.448;6.650;2022-08-19T07:24:57;42.80;;;32.30;;
22024;SDS011;11176;51.448;6.650;2022-08-19T07:27:24;48.85;;;34.60;;
22024;SDS011;11176;51.448;6.650;2022-08-19T07:29:51;44.00;;;31.27;;
22024;SDS011;11176;51.448;6.650;2022-08-19T07:32:24;51.20;;;35.80;;
22024;SDS011;11176;51.448;6.650;2022-08-19T07:34:54;44.88;;;30.45;;
22024;SDS011;11176;51.448;6.650;2022-08-19T07:37:23;39.90;;;26.27;;
22024;SDS011;11176;51.448;6.650;2022-08-19T07:39:58;30.80;;;22.80;;
22024;SDS011;11176;51.448;6.650;2022-08-19T07:42:24;35.08;;;24.02;;
22024;SDS011;11176;51.448;6.650;2022-08-19T07:44:51;36.50;;;23.75;;
22024;SDS011;11176;51.448;6.650;2022-08-19T07:47:18;34.00;;;23.02;;
22024;SDS011;11176;51.448;6.650;2022-08-19T07:50:05;29.35;;;21.00;;
22024;SDS011;11176;51.448;6.650;2022-08-19T07:52:35;32.05;;;20.67;;
22024;SDS011;11176;51.448;6.650;2022-08-19T07:55:05;30.80;;;21.10;;
22024;SDS011;11176;51.448;6.650;2022-08-19T07:57:53;31.33;;;20.65;;
22024;SDS011;11176;51.448;6.650;2022-08-19T08:00:19;26.77;;;17.60;;
22024;SDS011;11176;51.448;6.650;2022-08-19T08:02:50;30.60;;;20.63;;
22024;SDS011;11176;51.448;6.650;2022-08-19T08:05:20;26.60;;;17.42;;
22024;SDS011;11176;51.448;6.650;2022-08-19T08:08:09;39.40;;;23.20;;
22024;SDS011;11176;51.448;6.650;2022-08-19T08:11:13;39.80;;;22.65;;
22024;SDS011;11176;51.448;6.650;2022-08-19T08:13:42;28.30;;;19.60;;
22024;SDS011;11176;51.448;6.650;2022-08-19T08:16:09;29.50;;;19.42;;
22024;SDS011;11176;51.448;6.650;2022-08-19T08:18:39;39.90;;;24.77;;
22024;SDS011;11176;51.448;6.650;2022-08-19T08:21:08;35.22;;;22.95;;
22024;SDS011;11176;51.448;6.650;2022-08-19T08:23:35;36.85;;;24.38;;
22024;SDS011;11176;51.448;6.650;2022-08-19T08:26:04;33.45;;;21.58;;
22024;SDS011;11176;51.448;6.650;2022-08-19T08:28:31;32.40;;;22.02;;
22024;SDS011;11176;51.448;6.650;2022-08-19T08:30:58;35.83;;;23.80;;
22024;SDS011;11176;51.448;6.650;2022-08-19T08:33:26;35.65;;;24.92;;
22024;SDS011;11176;51.448;6.650;2022-08-19T08:36:07;41.42;;;25.17;;
22024;SDS011;11176;51.448;6.650;2022-08-19T08:38:34;35.85;;;23.75;;
22024;SDS011;11176;51.448;6.650;2022-08-19T08:43:57;32.35;;;21.83;;
22024;SDS011;11176;51.448;6.650;2022-08-19T08:46:26;34.03;;;22.27;;
22024;SDS011;11176;51.448;6.650;2022-08-19T08:51:48;29.33;;;19.52;;
22024;SDS011;11176;51.448;6.650;2022-08-19T08:54:27;31.35;;;21.52;;
22024;SDS011;11176;51.448;6.650;2022-08-19T08:57:02;37.45;;;22.83;;
22024;SDS011;11176;51.448;6.650;2022-08-19T08:59:34;32.90;;;20.77;;
22024;SDS011;11176;51.448;6.650;2022-08-19T09:02:05;25.17;;;18.30;;
22024;SDS011;11176;51.448;6.650;2022-08-19T09:04:34;24.27;;;16.95;;
22024;SDS011;11176;51.448;6.650;2022-08-19T09:07:21;22.10;;;15.45;;
22024;SDS011;11176;51.448;6.650;2022-08-19T09:10:09;24.65;;;15.85;;
22024;SDS011;11176;51.448;6.650;2022-08-19T09:15:36;30.98;;;21.45;;
22024;SDS011;11176;51.448;6.650;2022-08-19T09:18:07;36.07;;;23.77;;
22024;SDS011;11176;51.448;6.650;2022-08-19T09:20:40;25.10;;;17.98;;
22024;SDS011;11176;51.448;6.650;2022-08-19T09:23:08;22.08;;;15.88;;
22024;SDS011;11176;51.448;6.650;2022-08-19T09:25:36;31.40;;;21.30;;
22024;SDS011;11176;51.448;6.650;2022-08-19T09:28:03;33.85;;;23.00;;
22024;SDS011;11176;51.448;6.650;2022-08-19T09:30:40;26.95;;;20.23;;
22024;SDS011;11176;51.448;6.650;2022-08-19T09:33:07;26.70;;;18.55;;
22024;SDS011;11176;51.448;6.650;2022-08-19T09:35:34;22.63;;;15.02;;
22024;SDS011;11176;51.448;6.650;2022-08-19T09:38:15;20.48;;;14.73;;
22024;SDS011;11176;51.448;6.650;2022-08-19T09:40:42;24.60;;;17.05;;
22024;SDS011;11176;51.448;6.650;2022-08-19T09:43:08;20.88;;;15.48;;
22024;SDS011;11176;51.448;6.650;2022-08-19T09:45:38;26.92;;;19.88;;
22024;SDS011;11176;51.448;6.650;2022-08-19T09:48:05;25.08;;;16.58;;
22024;SDS011;11176;51.448;6.650;2022-08-19T09:50:32;21.77;;;15.05;;
22024;SDS011;11176;51.448;6.650;2022-08-19T09:53:01;25.97;;;16.97;;
22024;SDS011;11176;51.448;6.650;2022-08-19T09:55:27;26.75;;;17.70;;
22024;SDS011;11176;51.448;6.650;2022-08-19T09:57:58;22.92;;;16.33;;
22024;SDS011;11176;51.448;6.650;2022-08-19T10:00:25;28.38;;;17.67;;
22024;SDS011;11176;51.448;6.650;2022-08-19T10:02:52;24.58;;;16.85;;
22024;SDS011;11176;51.448;6.650;2022-08-19T10:05:19;23.45;;;15.25;;
22024;SDS011;11176;51.448;6.650;2022-08-19T10:08:07;17.27;;;12.15;;
22024;SDS011;11176;51.448;6.650;2022-08-19T10:10:39;25.88;;;16.45;;
22024;SDS011;11176;51.448;6.650;2022-08-19T10:13:14;20.00;;;13.70;;
22024;SDS011;11176;51.448;6.650;2022-08-19T10:15:42;16.27;;;11.75;;
22024;SDS011;11176;51.448;6.650;2022-08-19T10:18:13;24.05;;;15.90;;
22024;SDS011;11176;51.448;6.650;2022-08-19T10:20:40;19.92;;;13.63;;
22024;SDS011;11176;51.448;6.650;2022-08-19T10:23:08;20.92;;;13.43;;
22024;SDS011;11176;51.448;6.650;2022-08-19T10:25:35;17.00;;;11.50;;
22024;SDS011;11176;51.448;6.650;2022-08-19T10:28:04;14.43;;;10.32;;
22024;SDS011;11176;51.448;6.650;2022-08-19T10:30:36;14.23;;;10.00;;
22024;SDS011;11176;51.448;6.650;2022-08-19T10:33:03;13.07;;;8.80;;
22024;SDS011;11176;51.448;6.650;2022-08-19T10:35:36;14.25;;;10.38;;
22024;SDS011;11176;51.448;6.650;2022-08-19T10:38:21;12.93;;;10.05;;
22024;SDS011;11176;51.448;6.650;2022-08-19T10:40:57;15.88;;;10.23;;
22024;SDS011;11176;51.448;6.650;2022-08-19T10:43:24;12.98;;;8.75;;
22024;SDS011;11176;51.448;6.650;2022-08-19T10:45:54;11.32;;;8.10;;
22024;SDS011;11176;51.448;6.650;2022-08-19T10:48:22;11.95;;;9.07;;
22024;SDS011;11176;51.448;6.650;2022-08-19T10:50:49;18.77;;;12.05;;
22024;SDS011;11176;51.448;6.650;2022-08-19T10:53:34;14.50;;;10.88;;
22024;SDS011;11176;51.448;6.650;2022-08-19T10:56:01;13.95;;;8.15;;
22024;SDS011;11176;51.448;6.650;2022-08-19T10:58:46;14.95;;;10.60;;
22024;SDS011;11176;51.448;6.650;2022-08-19T11:01:12;14.10;;;9.88;;
22024;SDS011;11176;51.448;6.650;2022-08-19T11:03:39;14.07;;;9.60;;
22024;SDS011;11176;51.448;6.650;2022-08-19T11:06:06;10.90;;;7.95;;
22024;SDS011;11176;51.448;6.650;2022-08-19T11:08:34;15.60;;;9.82;;
22024;SDS011;11176;51.448;6.650;2022-08-19T11:11:04;12.85;;;8.52;;
22024;SDS011;11176;51.448;6.650;2022-08-19T11:13:33;11.23;;;8.63;;
22024;SDS011;11176;51.448;6.650;2022-08-19T11:16:03;20.35;;;11.60;;
22024;SDS011;11176;51.448;6.650;2022-08-19T11:18:34;11.25;;;7.70;;
22024;SDS011;11176;51.448;6.650;2022-08-19T11:21:09;11.88;;;7.90;;
22024;SDS011;11176;51.448;6.650;2022-08-19T11:23:46;13.80;;;9.18;;
22024;SDS011;11176;51.448;6.650;2022-08-19T11:26:15;17.60;;;8.82;;
22024;SDS011;11176;51.448;6.650;2022-08-19T11:28:44;11.60;;;6.82;;
22024;SDS011;11176;51.448;6.650;2022-08-19T11:31:14;7.95;;;6.07;;
22024;SDS011;11176;51.448;6.650;2022-08-19T11:33:42;11.50;;;6.90;;
22024;SDS011;11176;51.448;6.650;2022-08-19T11:36:13;7.32;;;4.95;;
22024;SDS011;11176;51.448;6.650;2022-08-19T11:38:40;12.48;;;6.50;;
22024;SDS011;11176;51.448;6.650;2022-08-19T11:41:07;11.85;;;6.13;;
22024;SDS011;11176;51.448;6.650;2022-08-19T11:43:34;7.82;;;5.30;;
22024;SDS011;11176;51.448;6.650;2022-08-19T11:46:03;10.73;;;5.80;;
22024;SDS011;11176;51.448;6.650;2022-08-19T11:48:33;9.75;;;6.10;;
22024;SDS011;11176;51.448;6.650;2022-08-19T11:51:02;11.63;;;6.43;;
22024;SDS011;11176;51.448;6.650;2022-08-19T11:53:32;8.35;;;5.10;;
22024;SDS011;11176;51.448;6.650;2022-08-19T11:56:00;9.73;;;5.45;;
22024;SDS011;11176;51.448;6.650;2022-08-19T11:58:27;10.30;;;5.32;;
22024;SDS011;11176;51.448;6.650;2022-08-19T12:00:53;7.95;;;4.80;;
22024;SDS011;11176;51.448;6.650;2022-08-19T12:03:19;6.05;;;4.35;;
22024;SDS011;11176;51.448;6.650;2022-08-19T12:05:47;7.32;;;4.10;;
22024;SDS011;11176;51.448;6.650;2022-08-19T12:08:13;7.07;;;4.40;;
22024;SDS011;11176;51.448;6.650;2022-08-19T12:10:41;11.27;;;6.28;;
22024;SDS011;11176;51.448;6.650;2022-08-19T12:13:11;4.70;;;3.20;;
22024;SDS011;11176;51.448;6.650;2022-08-19T12:15:45;4.95;;;3.42;;
22024;SDS011;11176;51.448;6.650;2022-08-19T12:18:13;7.15;;;3.45;;
22024;SDS011;11176;51.448;6.650;2022-08-19T12:20:40;5.82;;;3.78;;
22024;SDS011;11176;51.448;6.650;2022-08-19T12:23:09;7.20;;;3.20;;
22024;SDS011;11176;51.448;6.650;2022-08-19T12:25:37;5.07;;;2.85;;
22024;SDS011;11176;51.448;6.650;2022-08-19T12:28:09;6.68;;;2.60;;
22024;SDS011;11176;51.448;6.650;2022-08-19T12:30:37;3.85;;;2.83;;
22024;SDS011;11176;51.448;6.650;2022-08-19T12:33:04;4.75;;;2.85;;
22024;SDS011;11176;51.448;6.650;2022-08-19T12:35:30;4.07;;;2.70;;
22024;SDS011;11176;51.448;6.650;2022-08-19T12:37:56;5.43;;;2.97;;
22024;SDS011;11176;51.448;6.650;2022-08-19T12:40:24;5.05;;;2.53;;
22024;SDS011;11176;51.448;6.650;2022-08-19T12:42:52;4.57;;;2.50;;
22024;SDS011;11176;51.448;6.650;2022-08-19T12:45:19;4.25;;;2.60;;
22024;SDS011;11176;51.448;6.650;2022-08-19T12:47:46;4.57;;;2.83;;
22024;SDS011;11176;51.448;6.650;2022-08-19T12:50:13;4.65;;;2.67;;
22024;SDS011;11176;51.448;6.650;2022-08-19T12:52:39;6.20;;;2.90;;
22024;SDS011;11176;51.448;6.650;2022-08-19T12:55:08;7.53;;;3.60;;
22024;SDS011;11176;51.448;6.650;2022-08-19T12:57:35;6.35;;;3.25;;
22024;SDS011;11176;51.448;6.650;2022-08-19T13:00:05;8.00;;;2.90;;
22024;SDS011;11176;51.448;6.650;2022-08-19T13:02:39;4.75;;;3.10;;
22024;SDS011;11176;51.448;6.650;2022-08-19T13:05:08;5.55;;;2.42;;
22024;SDS011;11176;51.448;6.650;2022-08-19T13:07:37;3.80;;;2.85;;
22024;SDS011;11176;51.448;6.650;2022-08-19T13:10:08;5.00;;;3.05;;
22024;SDS011;11176;51.448;6.650;2022-08-19T13:15:05;5.07;;;2.72;;
22024;SDS011;11176;51.448;6.650;2022-08-19T13:17:36;4.93;;;2.65;;
22024;SDS011;11176;51.448;6.650;2022-08-19T13:20:04;7.68;;;3.67;;
22024;SDS011;11176;51.448;6.650;2022-08-19T13:22:34;6.15;;;3.15;;
22024;SDS011;11176;51.448;6.650;2022-08-19T13:25:02;4.93;;;3.40;;
22024;SDS011;11176;51.448;6.650;2022-08-19T13:27:30;6.68;;;3.65;;
22024;SDS011;11176;51.448;6.650;2022-08-19T13:29:56;7.35;;;4.10;;
22024;SDS011;11176;51.448;6.650;2022-08-19T13:32:41;6.10;;;3.80;;
22024;SDS011;11176;51.448;6.650;2022-08-19T13:35:26;8.98;;;3.42;;
22024;SDS011;11176;51.448;6.650;2022-08-19T13:37:53;6.45;;;3.60;;
22024;SDS011;11176;51.448;6.650;2022-08-19T13:40:21;6.90;;;3.90;;
22024;SDS011;11176;51.448;6.650;2022-08-19T13:42:51;5.68;;;3.75;;
22024;SDS011;11176;51.448;6.650;2022-08-19T13:45:21;7.00;;;4.00;;
22024;SDS011;11176;51.448;6.650;2022-08-19T13:47:51;6.72;;;3.92;;
22024;SDS011;11176;51.448;6.650;2022-08-19T13:50:28;7.18;;;3.72;;
22024;SDS011;11176;51.448;6.650;2022-08-19T13:55:24;6.63;;;3.30;;
22024;SDS011;11176;51.448;6.650;2022-08-19T13:57:55;6.18;;;3.58;;
22024;SDS011;11176;51.448;6.650;2022-08-19T14:00:23;8.75;;;4.20;;
22024;SDS011;11176;51.448;6.650;2022-08-19T14:02:53;6.93;;;4.75;;
22024;SDS011;11176;51.448;6.650;2022-08-19T14:05:21;9.70;;;7.07;;
22024;SDS011;11176;51.448;6.650;2022-08-19T14:07:48;10.68;;;7.00;;
22024;SDS011;11176;51.448;6.650;2022-08-19T14:10:15;8.32;;;5.35;;
22024;SDS011;11176;51.448;6.650;2022-08-19T14:12:42;10.55;;;8.18;;
22024;SDS011;11176;51.448;6.650;2022-08-19T14:15:10;9.98;;;4.80;;
22024;SDS011;11176;51.448;6.650;2022-08-19T14:17:38;6.43;;;3.63;;
22024;SDS011;11176;51.448;6.650;2022-08-19T14:20:06;5.65;;;3.45;;
22024;SDS011;11176;51.448;6.650;2022-08-19T14:22:37;6.32;;;3.53;;
22024;SDS011;11176;51.448;6.650;2022-08-19T14:25:06;7.47;;;3.67;;
22024;SDS011;11176;51.448;6.650;2022-08-19T14:27:35;4.45;;;2.92;;
22024;SDS011;11176;51.448;6.650;2022-08-19T14:30:03;6.38;;;3.20;;
22024;SDS011;11176;51.448;6.650;2022-08-19T14:32:31;4.57;;;2.65;;
22024;SDS011;11176;51.448;6.650;2022-08-19T14:34:58;4.90;;;2.85;;
22024;SDS011;11176;51.448;6.650;2022-08-19T14:37:24;5.03;;;2.90;;
22024;SDS011;11176;51.448;6.650;2022-08-19T14:39:53;5.03;;;3.00;;
22024;SDS011;11176;51.448;6.650;2022-08-19T14:42:20;7.55;;;2.90;;
22024;SDS011;11176;51.448;6.650;2022-08-19T14:44:46;5.30;;;3.45;;
22024;SDS011;11176;51.448;6.650;2022-08-19T14:47:13;8.32;;;4.25;;
22024;SDS011;11176;51.448;6.650;2022-08-19T14:49:39;7.82;;;4.18;;
22024;SDS011;11176;51.448;6.650;2022-08-19T14:52:09;9.77;;;4.82;;
22024;SDS011;11176;51.448;6.650;2022-08-19T14:54:35;8.85;;;4.55;;
22024;SDS011;11176;51.448;6.650;2022-08-19T14:57:02;6.63;;;3.92;;
22024;SDS011;11176;51.448;6.650;2022-08-19T14:59:28;5.70;;;3.55;;
22024;SDS011;11176;51.448;6.650;2022-08-19T15:01:55;5.95;;;3.85;;
22024;SDS011;11176;51.448;6.650;2022-08-19T15:04:21;7.00;;;3.70;;